<?xml version="1.0" encoding="UTF-8" standalone="no" ?>
<gpx xmlns="http://www.topografix.com/GPX/1/1" xmlns:xsi="http://www.w3.org/2001/XMLSchema-instance" xsi:schemaLocation="http://www.topografix.com/GPX/1/1 http://www.topografix.com/GPX/1/1/gpx.xsd" version="1.1" creator="VisuGPX - https://www.visugpx.com">
  <metadata>
    <name>Rando Marion/Coillu</name>
    <desc><![CDATA[                             ]]></desc>
  </metadata>
  <trk>
    <name><![CDATA[MARION - COILLU 002 - retour]]></name>
    <trkseg>
      <trkpt lat="45.84996" lon="6.43816">
        <ele>2078.51</ele>
        <time>2013-03-02T11:39:44Z</time>
      </trkpt>
      <trkpt lat="45.84997" lon="6.43811">
        <ele>2078.03</ele>
        <time>2013-03-02T11:46:30Z</time>
      </trkpt>
      <trkpt lat="45.85001" lon="6.43805">
        <ele>2076.59</ele>
        <time>2013-03-02T11:57:05Z</time>
      </trkpt>
      <trkpt lat="45.85001" lon="6.43807">
        <ele>2075.62</ele>
        <time>2013-03-02T12:18:46Z</time>
      </trkpt>
      <trkpt lat="45.85007" lon="6.43812">
        <ele>2073.7</ele>
        <time>2013-03-02T12:20:40Z</time>
      </trkpt>
      <trkpt lat="45.85008" lon="6.43802">
        <ele>2071.78</ele>
        <time>2013-03-02T12:22:29Z</time>
      </trkpt>
      <trkpt lat="45.85015" lon="6.43802">
        <ele>2066.01</ele>
        <time>2013-03-02T12:22:40Z</time>
      </trkpt>
      <trkpt lat="45.85023" lon="6.43812">
        <ele>2061.2</ele>
        <time>2013-03-02T12:23:28Z</time>
      </trkpt>
      <trkpt lat="45.85032" lon="6.43809">
        <ele>2053.99</ele>
        <time>2013-03-02T12:23:40Z</time>
      </trkpt>
      <trkpt lat="45.8504" lon="6.43813">
        <ele>2047.26</ele>
        <time>2013-03-02T12:23:50Z</time>
      </trkpt>
      <trkpt lat="45.85047" lon="6.43803">
        <ele>2041.5</ele>
        <time>2013-03-02T12:23:59Z</time>
      </trkpt>
      <trkpt lat="45.85053" lon="6.43803">
        <ele>2035.25</ele>
        <time>2013-03-02T12:24:08Z</time>
      </trkpt>
      <trkpt lat="45.85059" lon="6.43797">
        <ele>2029</ele>
        <time>2013-03-02T12:24:16Z</time>
      </trkpt>
      <trkpt lat="45.85058" lon="6.43789">
        <ele>2025.15</ele>
        <time>2013-03-02T12:24:28Z</time>
      </trkpt>
      <trkpt lat="45.85061" lon="6.43778">
        <ele>2017.46</ele>
        <time>2013-03-02T12:24:43Z</time>
      </trkpt>
      <trkpt lat="45.85062" lon="6.43766">
        <ele>2011.22</ele>
        <time>2013-03-02T12:24:56Z</time>
      </trkpt>
      <trkpt lat="45.85063" lon="6.43752">
        <ele>2008.33</ele>
        <time>2013-03-02T12:25:05Z</time>
      </trkpt>
      <trkpt lat="45.85065" lon="6.43734">
        <ele>2000.16</ele>
        <time>2013-03-02T12:25:20Z</time>
      </trkpt>
      <trkpt lat="45.85071" lon="6.43729">
        <ele>1992.95</ele>
        <time>2013-03-02T12:25:27Z</time>
      </trkpt>
      <trkpt lat="45.85083" lon="6.43729">
        <ele>1986.22</ele>
        <time>2013-03-02T12:25:33Z</time>
      </trkpt>
      <trkpt lat="45.85093" lon="6.43721">
        <ele>1981.41</ele>
        <time>2013-03-02T12:25:37Z</time>
      </trkpt>
      <trkpt lat="45.85097" lon="6.43727">
        <ele>1976.13</ele>
        <time>2013-03-02T12:25:46Z</time>
      </trkpt>
      <trkpt lat="45.85104" lon="6.43719">
        <ele>1971.32</ele>
        <time>2013-03-02T12:25:50Z</time>
      </trkpt>
      <trkpt lat="45.85112" lon="6.43716">
        <ele>1966.51</ele>
        <time>2013-03-02T12:25:54Z</time>
      </trkpt>
      <trkpt lat="45.85117" lon="6.43709">
        <ele>1962.19</ele>
        <time>2013-03-02T12:25:59Z</time>
      </trkpt>
      <trkpt lat="45.85121" lon="6.43712">
        <ele>1958.34</ele>
        <time>2013-03-02T12:26:10Z</time>
      </trkpt>
      <trkpt lat="45.85125" lon="6.43706">
        <ele>1954.5</ele>
        <time>2013-03-02T12:26:15Z</time>
      </trkpt>
      <trkpt lat="45.8513" lon="6.43708">
        <ele>1949.69</ele>
        <time>2013-03-02T12:26:23Z</time>
      </trkpt>
      <trkpt lat="45.85137" lon="6.43696">
        <ele>1945.85</ele>
        <time>2013-03-02T12:26:27Z</time>
      </trkpt>
      <trkpt lat="45.85145" lon="6.43664">
        <ele>1942.48</ele>
        <time>2013-03-02T12:26:42Z</time>
      </trkpt>
      <trkpt lat="45.85156" lon="6.43659">
        <ele>1936.71</ele>
        <time>2013-03-02T12:26:46Z</time>
      </trkpt>
      <trkpt lat="45.85166" lon="6.43661">
        <ele>1932.39</ele>
        <time>2013-03-02T12:26:49Z</time>
      </trkpt>
      <trkpt lat="45.8516" lon="6.43665">
        <ele>1925.18</ele>
        <time>2013-03-02T12:26:54Z</time>
      </trkpt>
      <trkpt lat="45.8516" lon="6.43669">
        <ele>1919.89</ele>
        <time>2013-03-02T12:26:59Z</time>
      </trkpt>
      <trkpt lat="45.85168" lon="6.43675">
        <ele>1917.49</ele>
        <time>2013-03-02T12:27:02Z</time>
      </trkpt>
      <trkpt lat="45.85175" lon="6.43681">
        <ele>1910.28</ele>
        <time>2013-03-02T12:27:07Z</time>
      </trkpt>
      <trkpt lat="45.85181" lon="6.43679">
        <ele>1904.99</ele>
        <time>2013-03-02T12:27:11Z</time>
      </trkpt>
      <trkpt lat="45.85194" lon="6.43712">
        <ele>1903.55</ele>
        <time>2013-03-02T12:27:48Z</time>
      </trkpt>
      <trkpt lat="45.85201" lon="6.43707">
        <ele>1895.86</ele>
        <time>2013-03-02T12:27:54Z</time>
      </trkpt>
      <trkpt lat="45.85207" lon="6.43699">
        <ele>1889.13</ele>
        <time>2013-03-02T12:27:59Z</time>
      </trkpt>
      <trkpt lat="45.85216" lon="6.4369">
        <ele>1877.59</ele>
        <time>2013-03-02T12:28:10Z</time>
      </trkpt>
      <trkpt lat="45.85225" lon="6.43697">
        <ele>1873.27</ele>
        <time>2013-03-02T12:28:13Z</time>
      </trkpt>
      <trkpt lat="45.85236" lon="6.43699">
        <ele>1862.21</ele>
        <time>2013-03-02T12:28:20Z</time>
      </trkpt>
      <trkpt lat="45.85252" lon="6.43691">
        <ele>1860.29</ele>
        <time>2013-03-02T12:28:58Z</time>
      </trkpt>
      <trkpt lat="45.85254" lon="6.43688">
        <ele>1853.08</ele>
        <time>2013-03-02T12:29:04Z</time>
      </trkpt>
      <trkpt lat="45.85255" lon="6.43677">
        <ele>1847.79</ele>
        <time>2013-03-02T12:29:07Z</time>
      </trkpt>
      <trkpt lat="45.85262" lon="6.4365">
        <ele>1838.66</ele>
        <time>2013-03-02T12:29:13Z</time>
      </trkpt>
      <trkpt lat="45.8527" lon="6.43638">
        <ele>1834.33</ele>
        <time>2013-03-02T12:29:16Z</time>
      </trkpt>
      <trkpt lat="45.85279" lon="6.43635">
        <ele>1830.01</ele>
        <time>2013-03-02T12:29:19Z</time>
      </trkpt>
      <trkpt lat="45.85285" lon="6.43627">
        <ele>1826.64</ele>
        <time>2013-03-02T12:29:23Z</time>
      </trkpt>
      <trkpt lat="45.85296" lon="6.43608">
        <ele>1822.8</ele>
        <time>2013-03-02T12:29:27Z</time>
      </trkpt>
      <trkpt lat="45.8531" lon="6.43613">
        <ele>1818.95</ele>
        <time>2013-03-02T12:29:29Z</time>
      </trkpt>
      <trkpt lat="45.8533" lon="6.43623">
        <ele>1817.99</ele>
        <time>2013-03-02T12:29:32Z</time>
      </trkpt>
      <trkpt lat="45.8534" lon="6.43621">
        <ele>1818.95</ele>
        <time>2013-03-02T12:29:34Z</time>
      </trkpt>
      <trkpt lat="45.85324" lon="6.4361">
        <ele>1817.99</ele>
        <time>2013-03-02T12:29:49Z</time>
      </trkpt>
      <trkpt lat="45.85331" lon="6.43606">
        <ele>1811.26</ele>
        <time>2013-03-02T12:29:53Z</time>
      </trkpt>
      <trkpt lat="45.85331" lon="6.43594">
        <ele>1805.49</ele>
        <time>2013-03-02T12:29:56Z</time>
      </trkpt>
      <trkpt lat="45.85329" lon="6.43601">
        <ele>1803.57</ele>
        <time>2013-03-02T12:30:13Z</time>
      </trkpt>
      <trkpt lat="45.85336" lon="6.43612">
        <ele>1801.65</ele>
        <time>2013-03-02T12:30:16Z</time>
      </trkpt>
      <trkpt lat="45.85345" lon="6.43614">
        <ele>1795.4</ele>
        <time>2013-03-02T12:30:20Z</time>
      </trkpt>
      <trkpt lat="45.85353" lon="6.43612">
        <ele>1789.63</ele>
        <time>2013-03-02T12:30:24Z</time>
      </trkpt>
      <trkpt lat="45.85362" lon="6.43617">
        <ele>1785.79</ele>
        <time>2013-03-02T12:30:26Z</time>
      </trkpt>
      <trkpt lat="45.85375" lon="6.43622">
        <ele>1785.79</ele>
        <time>2013-03-02T12:30:48Z</time>
      </trkpt>
      <trkpt lat="45.85383" lon="6.4362">
        <ele>1782.9</ele>
        <time>2013-03-02T12:30:51Z</time>
      </trkpt>
      <trkpt lat="45.85391" lon="6.4362">
        <ele>1776.65</ele>
        <time>2013-03-02T12:30:54Z</time>
      </trkpt>
      <trkpt lat="45.854" lon="6.43623">
        <ele>1772.33</ele>
        <time>2013-03-02T12:31:00Z</time>
      </trkpt>
      <trkpt lat="45.8541" lon="6.43632">
        <ele>1768.48</ele>
        <time>2013-03-02T12:31:04Z</time>
      </trkpt>
      <trkpt lat="45.8542" lon="6.4364">
        <ele>1765.12</ele>
        <time>2013-03-02T12:31:07Z</time>
      </trkpt>
      <trkpt lat="45.85428" lon="6.43648">
        <ele>1763.2</ele>
        <time>2013-03-02T12:31:13Z</time>
      </trkpt>
      <trkpt lat="45.85433" lon="6.43661">
        <ele>1762.71</ele>
        <time>2013-03-02T12:31:48Z</time>
      </trkpt>
      <trkpt lat="45.85441" lon="6.43665">
        <ele>1761.75</ele>
        <time>2013-03-02T12:31:57Z</time>
      </trkpt>
      <trkpt lat="45.85443" lon="6.43678">
        <ele>1757.91</ele>
        <time>2013-03-02T12:40:42Z</time>
      </trkpt>
      <trkpt lat="45.8545" lon="6.43674">
        <ele>1758.87</ele>
        <time>2013-03-02T12:41:10Z</time>
      </trkpt>
      <trkpt lat="45.85458" lon="6.43682">
        <ele>1760.79</ele>
        <time>2013-03-02T12:41:25Z</time>
      </trkpt>
      <trkpt lat="45.85467" lon="6.43686">
        <ele>1762.23</ele>
        <time>2013-03-02T12:41:38Z</time>
      </trkpt>
      <trkpt lat="45.85476" lon="6.43687">
        <ele>1765.6</ele>
        <time>2013-03-02T12:42:02Z</time>
      </trkpt>
      <trkpt lat="45.85485" lon="6.43693">
        <ele>1767.04</ele>
        <time>2013-03-02T12:42:14Z</time>
      </trkpt>
      <trkpt lat="45.85492" lon="6.43697">
        <ele>1768.96</ele>
        <time>2013-03-02T12:42:28Z</time>
      </trkpt>
      <trkpt lat="45.85498" lon="6.43706">
        <ele>1771.85</ele>
        <time>2013-03-02T12:42:57Z</time>
      </trkpt>
      <trkpt lat="45.85493" lon="6.43722">
        <ele>1775.21</ele>
        <time>2013-03-02T12:43:20Z</time>
      </trkpt>
      <trkpt lat="45.85496" lon="6.4373">
        <ele>1778.58</ele>
        <time>2013-03-02T12:43:49Z</time>
      </trkpt>
      <trkpt lat="45.85502" lon="6.43738">
        <ele>1780.5</ele>
        <time>2013-03-02T12:44:02Z</time>
      </trkpt>
      <trkpt lat="45.8551" lon="6.43747">
        <ele>1782.9</ele>
        <time>2013-03-02T12:44:21Z</time>
      </trkpt>
      <trkpt lat="45.8552" lon="6.43753">
        <ele>1784.34</ele>
        <time>2013-03-02T12:44:37Z</time>
      </trkpt>
      <trkpt lat="45.85529" lon="6.43759">
        <ele>1785.79</ele>
        <time>2013-03-02T12:44:52Z</time>
      </trkpt>
      <trkpt lat="45.85536" lon="6.43767">
        <ele>1787.71</ele>
        <time>2013-03-02T12:45:08Z</time>
      </trkpt>
      <trkpt lat="45.85546" lon="6.43779">
        <ele>1791.07</ele>
        <time>2013-03-02T12:45:30Z</time>
      </trkpt>
      <trkpt lat="45.85552" lon="6.43786">
        <ele>1793</ele>
        <time>2013-03-02T12:45:47Z</time>
      </trkpt>
      <trkpt lat="45.85559" lon="6.43796">
        <ele>1794.92</ele>
        <time>2013-03-02T12:46:05Z</time>
      </trkpt>
      <trkpt lat="45.85564" lon="6.43806">
        <ele>1797.32</ele>
        <time>2013-03-02T12:46:28Z</time>
      </trkpt>
      <trkpt lat="45.85552" lon="6.43806">
        <ele>1799.73</ele>
        <time>2013-03-02T12:46:42Z</time>
      </trkpt>
      <trkpt lat="45.85543" lon="6.43808">
        <ele>1801.65</ele>
        <time>2013-03-02T12:46:54Z</time>
      </trkpt>
      <trkpt lat="45.85533" lon="6.43812">
        <ele>1805.49</ele>
        <time>2013-03-02T12:47:15Z</time>
      </trkpt>
      <trkpt lat="45.85528" lon="6.43817">
        <ele>1808.86</ele>
        <time>2013-03-02T12:47:55Z</time>
      </trkpt>
      <trkpt lat="45.85519" lon="6.43822">
        <ele>1812.7</ele>
        <time>2013-03-02T12:48:11Z</time>
      </trkpt>
      <trkpt lat="45.85509" lon="6.4383">
        <ele>1816.55</ele>
        <time>2013-03-02T12:48:29Z</time>
      </trkpt>
      <trkpt lat="45.85508" lon="6.43831">
        <ele>1819.43</ele>
        <time>2013-03-02T12:48:49Z</time>
      </trkpt>
      <trkpt lat="45.85514" lon="6.43836">
        <ele>1821.35</ele>
        <time>2013-03-02T12:49:02Z</time>
      </trkpt>
      <trkpt lat="45.85522" lon="6.43843">
        <ele>1824.24</ele>
        <time>2013-03-02T12:49:18Z</time>
      </trkpt>
      <trkpt lat="45.85529" lon="6.43847">
        <ele>1826.64</ele>
        <time>2013-03-02T12:49:32Z</time>
      </trkpt>
      <trkpt lat="45.85537" lon="6.43856">
        <ele>1827.6</ele>
        <time>2013-03-02T12:49:45Z</time>
      </trkpt>
      <trkpt lat="45.85546" lon="6.43864">
        <ele>1829.53</ele>
        <time>2013-03-02T12:50:01Z</time>
      </trkpt>
      <trkpt lat="45.85552" lon="6.43875">
        <ele>1831.45</ele>
        <time>2013-03-02T12:50:14Z</time>
      </trkpt>
      <trkpt lat="45.85557" lon="6.43884">
        <ele>1833.37</ele>
        <time>2013-03-02T12:50:26Z</time>
      </trkpt>
      <trkpt lat="45.85562" lon="6.43896">
        <ele>1833.37</ele>
        <time>2013-03-02T12:50:40Z</time>
      </trkpt>
      <trkpt lat="45.85566" lon="6.43907">
        <ele>1834.33</ele>
        <time>2013-03-02T12:50:52Z</time>
      </trkpt>
      <trkpt lat="45.85568" lon="6.43922">
        <ele>1835.77</ele>
        <time>2013-03-02T12:51:05Z</time>
      </trkpt>
      <trkpt lat="45.85572" lon="6.43931">
        <ele>1837.7</ele>
        <time>2013-03-02T12:51:19Z</time>
      </trkpt>
      <trkpt lat="45.85576" lon="6.43946">
        <ele>1839.62</ele>
        <time>2013-03-02T12:51:39Z</time>
      </trkpt>
      <trkpt lat="45.85581" lon="6.43958">
        <ele>1842.02</ele>
        <time>2013-03-02T12:51:53Z</time>
      </trkpt>
      <trkpt lat="45.85588" lon="6.43967">
        <ele>1844.43</ele>
        <time>2013-03-02T12:52:08Z</time>
      </trkpt>
      <trkpt lat="45.85594" lon="6.43978">
        <ele>1846.83</ele>
        <time>2013-03-02T12:52:21Z</time>
      </trkpt>
      <trkpt lat="45.85599" lon="6.43989">
        <ele>1848.75</ele>
        <time>2013-03-02T12:52:34Z</time>
      </trkpt>
      <trkpt lat="45.85603" lon="6.44001">
        <ele>1851.16</ele>
        <time>2013-03-02T12:52:47Z</time>
      </trkpt>
      <trkpt lat="45.85608" lon="6.44013">
        <ele>1853.08</ele>
        <time>2013-03-02T12:53:02Z</time>
      </trkpt>
      <trkpt lat="45.85612" lon="6.44025">
        <ele>1855.48</ele>
        <time>2013-03-02T12:53:16Z</time>
      </trkpt>
      <trkpt lat="45.8562" lon="6.44035">
        <ele>1856.44</ele>
        <time>2013-03-02T12:53:29Z</time>
      </trkpt>
      <trkpt lat="45.85623" lon="6.44043">
        <ele>1857.4</ele>
        <time>2013-03-02T12:53:59Z</time>
      </trkpt>
      <trkpt lat="45.85615" lon="6.44052">
        <ele>1859.81</ele>
        <time>2013-03-02T12:54:11Z</time>
      </trkpt>
      <trkpt lat="45.85606" lon="6.44051">
        <ele>1862.69</ele>
        <time>2013-03-02T12:54:23Z</time>
      </trkpt>
      <trkpt lat="45.85597" lon="6.44047">
        <ele>1865.09</ele>
        <time>2013-03-02T12:54:36Z</time>
      </trkpt>
      <trkpt lat="45.85588" lon="6.44046">
        <ele>1867.02</ele>
        <time>2013-03-02T12:54:50Z</time>
      </trkpt>
      <trkpt lat="45.85579" lon="6.44047">
        <ele>1869.9</ele>
        <time>2013-03-02T12:55:04Z</time>
      </trkpt>
      <trkpt lat="45.8557" lon="6.4405">
        <ele>1873.27</ele>
        <time>2013-03-02T12:55:24Z</time>
      </trkpt>
      <trkpt lat="45.85561" lon="6.44053">
        <ele>1876.15</ele>
        <time>2013-03-02T12:55:37Z</time>
      </trkpt>
      <trkpt lat="45.85551" lon="6.44051">
        <ele>1879.03</ele>
        <time>2013-03-02T12:55:52Z</time>
      </trkpt>
      <trkpt lat="45.85543" lon="6.44047">
        <ele>1881.92</ele>
        <time>2013-03-02T12:56:07Z</time>
      </trkpt>
      <trkpt lat="45.85534" lon="6.44048">
        <ele>1884.32</ele>
        <time>2013-03-02T12:56:20Z</time>
      </trkpt>
      <trkpt lat="45.85525" lon="6.44048">
        <ele>1886.72</ele>
        <time>2013-03-02T12:56:34Z</time>
      </trkpt>
      <trkpt lat="45.85528" lon="6.44052">
        <ele>1889.61</ele>
        <time>2013-03-02T12:56:54Z</time>
      </trkpt>
      <trkpt lat="45.85534" lon="6.44063">
        <ele>1892.49</ele>
        <time>2013-03-02T12:57:08Z</time>
      </trkpt>
      <trkpt lat="45.85537" lon="6.44076">
        <ele>1894.42</ele>
        <time>2013-03-02T12:57:24Z</time>
      </trkpt>
      <trkpt lat="45.85529" lon="6.4408">
        <ele>1896.82</ele>
        <time>2013-03-02T12:57:40Z</time>
      </trkpt>
      <trkpt lat="45.8552" lon="6.44085">
        <ele>1899.22</ele>
        <time>2013-03-02T12:57:53Z</time>
      </trkpt>
      <trkpt lat="45.85525" lon="6.44088">
        <ele>1902.59</ele>
        <time>2013-03-02T12:58:12Z</time>
      </trkpt>
      <trkpt lat="45.85531" lon="6.44097">
        <ele>1905.47</ele>
        <time>2013-03-02T12:58:28Z</time>
      </trkpt>
      <trkpt lat="45.85536" lon="6.44107">
        <ele>1907.87</ele>
        <time>2013-03-02T12:58:43Z</time>
      </trkpt>
      <trkpt lat="45.85544" lon="6.44116">
        <ele>1910.28</ele>
        <time>2013-03-02T12:58:56Z</time>
      </trkpt>
      <trkpt lat="45.85551" lon="6.44126">
        <ele>1912.68</ele>
        <time>2013-03-02T12:59:09Z</time>
      </trkpt>
      <trkpt lat="45.85555" lon="6.44137">
        <ele>1915.56</ele>
        <time>2013-03-02T12:59:24Z</time>
      </trkpt>
      <trkpt lat="45.85559" lon="6.44149">
        <ele>1918.45</ele>
        <time>2013-03-02T12:59:38Z</time>
      </trkpt>
      <trkpt lat="45.85564" lon="6.44161">
        <ele>1920.85</ele>
        <time>2013-03-02T12:59:53Z</time>
      </trkpt>
      <trkpt lat="45.85565" lon="6.44175">
        <ele>1923.74</ele>
        <time>2013-03-02T13:00:07Z</time>
      </trkpt>
      <trkpt lat="45.8557" lon="6.44185">
        <ele>1926.14</ele>
        <time>2013-03-02T13:00:20Z</time>
      </trkpt>
      <trkpt lat="45.85572" lon="6.44198">
        <ele>1928.54</ele>
        <time>2013-03-02T13:00:34Z</time>
      </trkpt>
      <trkpt lat="45.85578" lon="6.44209">
        <ele>1930.95</ele>
        <time>2013-03-02T13:00:48Z</time>
      </trkpt>
      <trkpt lat="45.85582" lon="6.44224">
        <ele>1933.83</ele>
        <time>2013-03-02T13:01:04Z</time>
      </trkpt>
      <trkpt lat="45.85583" lon="6.44234">
        <ele>1936.23</ele>
        <time>2013-03-02T13:01:19Z</time>
      </trkpt>
      <trkpt lat="45.85585" lon="6.44247">
        <ele>1938.64</ele>
        <time>2013-03-02T13:01:35Z</time>
      </trkpt>
      <trkpt lat="45.85575" lon="6.4425">
        <ele>1941.04</ele>
        <time>2013-03-02T13:01:48Z</time>
      </trkpt>
      <trkpt lat="45.85565" lon="6.44247">
        <ele>1942.96</ele>
        <time>2013-03-02T13:02:02Z</time>
      </trkpt>
      <trkpt lat="45.85557" lon="6.44244">
        <ele>1945.85</ele>
        <time>2013-03-02T13:02:17Z</time>
      </trkpt>
      <trkpt lat="45.85548" lon="6.44242">
        <ele>1948.73</ele>
        <time>2013-03-02T13:02:34Z</time>
      </trkpt>
      <trkpt lat="45.85538" lon="6.44244">
        <ele>1951.61</ele>
        <time>2013-03-02T13:02:49Z</time>
      </trkpt>
      <trkpt lat="45.8553" lon="6.44246">
        <ele>1953.54</ele>
        <time>2013-03-02T13:03:02Z</time>
      </trkpt>
      <trkpt lat="45.85521" lon="6.44247">
        <ele>1955.94</ele>
        <time>2013-03-02T13:03:15Z</time>
      </trkpt>
      <trkpt lat="45.85525" lon="6.44247">
        <ele>1957.86</ele>
        <time>2013-03-02T13:03:32Z</time>
      </trkpt>
      <trkpt lat="45.85529" lon="6.44256">
        <ele>1960.75</ele>
        <time>2013-03-02T13:03:46Z</time>
      </trkpt>
      <trkpt lat="45.85535" lon="6.44266">
        <ele>1962.67</ele>
        <time>2013-03-02T13:04:00Z</time>
      </trkpt>
      <trkpt lat="45.85541" lon="6.44277">
        <ele>1964.59</ele>
        <time>2013-03-02T13:04:13Z</time>
      </trkpt>
      <trkpt lat="45.85546" lon="6.44289">
        <ele>1966.03</ele>
        <time>2013-03-02T13:04:25Z</time>
      </trkpt>
      <trkpt lat="45.85551" lon="6.44301">
        <ele>1967.96</ele>
        <time>2013-03-02T13:04:38Z</time>
      </trkpt>
      <trkpt lat="45.85556" lon="6.44311">
        <ele>1969.4</ele>
        <time>2013-03-02T13:04:50Z</time>
      </trkpt>
      <trkpt lat="45.8556" lon="6.44323">
        <ele>1970.36</ele>
        <time>2013-03-02T13:05:02Z</time>
      </trkpt>
      <trkpt lat="45.85567" lon="6.44332">
        <ele>1972.76</ele>
        <time>2013-03-02T13:05:15Z</time>
      </trkpt>
      <trkpt lat="45.85572" lon="6.44343">
        <ele>1974.69</ele>
        <time>2013-03-02T13:05:29Z</time>
      </trkpt>
      <trkpt lat="45.8558" lon="6.44351">
        <ele>1976.13</ele>
        <time>2013-03-02T13:05:42Z</time>
      </trkpt>
      <trkpt lat="45.85578" lon="6.44365">
        <ele>1979.01</ele>
        <time>2013-03-02T13:05:59Z</time>
      </trkpt>
      <trkpt lat="45.85568" lon="6.44372">
        <ele>1981.9</ele>
        <time>2013-03-02T13:06:16Z</time>
      </trkpt>
      <trkpt lat="45.85559" lon="6.44378">
        <ele>1985.26</ele>
        <time>2013-03-02T13:06:41Z</time>
      </trkpt>
      <trkpt lat="45.85565" lon="6.44381">
        <ele>1988.14</ele>
        <time>2013-03-02T13:06:56Z</time>
      </trkpt>
      <trkpt lat="45.85571" lon="6.4439">
        <ele>1990.55</ele>
        <time>2013-03-02T13:07:08Z</time>
      </trkpt>
      <trkpt lat="45.85576" lon="6.44401">
        <ele>1992.47</ele>
        <time>2013-03-02T13:07:22Z</time>
      </trkpt>
      <trkpt lat="45.85583" lon="6.4441">
        <ele>1994.39</ele>
        <time>2013-03-02T13:07:35Z</time>
      </trkpt>
      <trkpt lat="45.8559" lon="6.44419">
        <ele>1997.76</ele>
        <time>2013-03-02T13:07:52Z</time>
      </trkpt>
      <trkpt lat="45.85592" lon="6.44432">
        <ele>2000.16</ele>
        <time>2013-03-02T13:08:08Z</time>
      </trkpt>
      <trkpt lat="45.85599" lon="6.44441">
        <ele>2003.04</ele>
        <time>2013-03-02T13:08:22Z</time>
      </trkpt>
      <trkpt lat="45.85599" lon="6.44456">
        <ele>2006.41</ele>
        <time>2013-03-02T13:08:40Z</time>
      </trkpt>
      <trkpt lat="45.8559" lon="6.44465">
        <ele>2008.33</ele>
        <time>2013-03-02T13:08:54Z</time>
      </trkpt>
      <trkpt lat="45.85582" lon="6.44472">
        <ele>2011.22</ele>
        <time>2013-03-02T13:09:08Z</time>
      </trkpt>
      <trkpt lat="45.85573" lon="6.44477">
        <ele>2014.1</ele>
        <time>2013-03-02T13:09:22Z</time>
      </trkpt>
      <trkpt lat="45.85566" lon="6.44484">
        <ele>2017.46</ele>
        <time>2013-03-02T13:09:40Z</time>
      </trkpt>
      <trkpt lat="45.85562" lon="6.4448">
        <ele>2019.87</ele>
        <time>2013-03-02T13:10:20Z</time>
      </trkpt>
      <trkpt lat="45.85562" lon="6.44489">
        <ele>2022.75</ele>
        <time>2013-03-02T13:10:35Z</time>
      </trkpt>
      <trkpt lat="45.85565" lon="6.44501">
        <ele>2025.64</ele>
        <time>2013-03-02T13:10:49Z</time>
      </trkpt>
      <trkpt lat="45.85567" lon="6.44512">
        <ele>2028.52</ele>
        <time>2013-03-02T13:11:03Z</time>
      </trkpt>
      <trkpt lat="45.8557" lon="6.44526">
        <ele>2031.4</ele>
        <time>2013-03-02T13:11:21Z</time>
      </trkpt>
      <trkpt lat="45.85564" lon="6.44535">
        <ele>2033.33</ele>
        <time>2013-03-02T13:11:32Z</time>
      </trkpt>
      <trkpt lat="45.85555" lon="6.44538">
        <ele>2036.69</ele>
        <time>2013-03-02T13:11:48Z</time>
      </trkpt>
      <trkpt lat="45.85546" lon="6.44536">
        <ele>2039.09</ele>
        <time>2013-03-02T13:12:02Z</time>
      </trkpt>
      <trkpt lat="45.85547" lon="6.44538">
        <ele>2041.5</ele>
        <time>2013-03-02T13:12:21Z</time>
      </trkpt>
      <trkpt lat="45.85547" lon="6.44551">
        <ele>2045.34</ele>
        <time>2013-03-02T13:12:43Z</time>
      </trkpt>
      <trkpt lat="45.85553" lon="6.44563">
        <ele>2048.23</ele>
        <time>2013-03-02T13:13:00Z</time>
      </trkpt>
      <trkpt lat="45.85556" lon="6.44573">
        <ele>2050.15</ele>
        <time>2013-03-02T13:13:13Z</time>
      </trkpt>
      <trkpt lat="45.85562" lon="6.44583">
        <ele>2053.51</ele>
        <time>2013-03-02T13:13:36Z</time>
      </trkpt>
      <trkpt lat="45.85566" lon="6.44595">
        <ele>2056.88</ele>
        <time>2013-03-02T13:13:51Z</time>
      </trkpt>
      <trkpt lat="45.85573" lon="6.44601">
        <ele>2059.28</ele>
        <time>2013-03-02T13:14:19Z</time>
      </trkpt>
      <trkpt lat="45.85581" lon="6.44607">
        <ele>2061.68</ele>
        <time>2013-03-02T13:14:31Z</time>
      </trkpt>
      <trkpt lat="45.8559" lon="6.44615">
        <ele>2063.13</ele>
        <time>2013-03-02T13:14:43Z</time>
      </trkpt>
      <trkpt lat="45.85592" lon="6.44621">
        <ele>2064.09</ele>
        <time>2013-03-02T13:15:22Z</time>
      </trkpt>
      <trkpt lat="45.85601" lon="6.44628">
        <ele>2065.05</ele>
        <time>2013-03-02T13:17:40Z</time>
      </trkpt>
      <trkpt lat="45.85592" lon="6.44631">
        <ele>2066.97</ele>
        <time>2013-03-02T13:17:53Z</time>
      </trkpt>
      <trkpt lat="45.85585" lon="6.44634">
        <ele>2068.89</ele>
        <time>2013-03-02T13:18:09Z</time>
      </trkpt>
      <trkpt lat="45.85592" lon="6.44639">
        <ele>2071.3</ele>
        <time>2013-03-02T13:18:21Z</time>
      </trkpt>
      <trkpt lat="45.85598" lon="6.44648">
        <ele>2072.74</ele>
        <time>2013-03-02T13:18:32Z</time>
      </trkpt>
      <trkpt lat="45.85604" lon="6.44659">
        <ele>2074.18</ele>
        <time>2013-03-02T13:18:44Z</time>
      </trkpt>
      <trkpt lat="45.8561" lon="6.44669">
        <ele>2075.62</ele>
        <time>2013-03-02T13:18:56Z</time>
      </trkpt>
      <trkpt lat="45.85616" lon="6.44679">
        <ele>2078.03</ele>
        <time>2013-03-02T13:19:09Z</time>
      </trkpt>
      <trkpt lat="45.85624" lon="6.44686">
        <ele>2079.95</ele>
        <time>2013-03-02T13:19:22Z</time>
      </trkpt>
      <trkpt lat="45.85633" lon="6.44693">
        <ele>2081.87</ele>
        <time>2013-03-02T13:19:36Z</time>
      </trkpt>
      <trkpt lat="45.85639" lon="6.44704">
        <ele>2084.28</ele>
        <time>2013-03-02T13:19:50Z</time>
      </trkpt>
      <trkpt lat="45.85648" lon="6.44714">
        <ele>2086.2</ele>
        <time>2013-03-02T13:20:04Z</time>
      </trkpt>
      <trkpt lat="45.85654" lon="6.44722">
        <ele>2088.6</ele>
        <time>2013-03-02T13:20:19Z</time>
      </trkpt>
      <trkpt lat="45.85659" lon="6.44735">
        <ele>2090.04</ele>
        <time>2013-03-02T13:20:40Z</time>
      </trkpt>
      <trkpt lat="45.85651" lon="6.44737">
        <ele>2092.45</ele>
        <time>2013-03-02T13:20:53Z</time>
      </trkpt>
      <trkpt lat="45.85643" lon="6.44743">
        <ele>2094.85</ele>
        <time>2013-03-02T13:21:10Z</time>
      </trkpt>
      <trkpt lat="45.85648" lon="6.4474">
        <ele>2097.25</ele>
        <time>2013-03-02T13:21:24Z</time>
      </trkpt>
      <trkpt lat="45.85654" lon="6.44749">
        <ele>2098.21</ele>
        <time>2013-03-02T13:21:34Z</time>
      </trkpt>
      <trkpt lat="45.85658" lon="6.44761">
        <ele>2100.14</ele>
        <time>2013-03-02T13:21:47Z</time>
      </trkpt>
      <trkpt lat="45.85663" lon="6.4477">
        <ele>2101.1</ele>
        <time>2013-03-02T13:22:01Z</time>
      </trkpt>
      <trkpt lat="45.85673" lon="6.44778">
        <ele>2104.46</ele>
        <time>2013-03-02T13:22:21Z</time>
      </trkpt>
      <trkpt lat="45.85681" lon="6.44784">
        <ele>2106.87</ele>
        <time>2013-03-02T13:22:37Z</time>
      </trkpt>
      <trkpt lat="45.85691" lon="6.4479">
        <ele>2108.31</ele>
        <time>2013-03-02T13:22:50Z</time>
      </trkpt>
      <trkpt lat="45.85697" lon="6.448">
        <ele>2110.23</ele>
        <time>2013-03-02T13:23:04Z</time>
      </trkpt>
      <trkpt lat="45.85702" lon="6.44811">
        <ele>2112.15</ele>
        <time>2013-03-02T13:23:17Z</time>
      </trkpt>
      <trkpt lat="45.85706" lon="6.44823">
        <ele>2115.04</ele>
        <time>2013-03-02T13:23:33Z</time>
      </trkpt>
      <trkpt lat="45.85714" lon="6.44833">
        <ele>2116.96</ele>
        <time>2013-03-02T13:23:48Z</time>
      </trkpt>
      <trkpt lat="45.85723" lon="6.44841">
        <ele>2119.84</ele>
        <time>2013-03-02T13:24:08Z</time>
      </trkpt>
      <trkpt lat="45.85731" lon="6.44848">
        <ele>2120.81</ele>
        <time>2013-03-02T13:24:19Z</time>
      </trkpt>
      <trkpt lat="45.8574" lon="6.44853">
        <ele>2123.21</ele>
        <time>2013-03-02T13:24:46Z</time>
      </trkpt>
      <trkpt lat="45.85749" lon="6.44854">
        <ele>2124.65</ele>
        <time>2013-03-02T13:25:06Z</time>
      </trkpt>
      <trkpt lat="45.85759" lon="6.44857">
        <ele>2126.09</ele>
        <time>2013-03-02T13:25:27Z</time>
      </trkpt>
      <trkpt lat="45.85757" lon="6.44864">
        <ele>2128.02</ele>
        <time>2013-03-02T13:25:51Z</time>
      </trkpt>
      <trkpt lat="45.85764" lon="6.44867">
        <ele>2130.9</ele>
        <time>2013-03-02T13:26:07Z</time>
      </trkpt>
      <trkpt lat="45.85759" lon="6.44873">
        <ele>2132.82</ele>
        <time>2013-03-02T13:26:24Z</time>
      </trkpt>
      <trkpt lat="45.85756" lon="6.44871">
        <ele>2135.23</ele>
        <time>2013-03-02T13:27:08Z</time>
      </trkpt>
      <trkpt lat="45.85763" lon="6.44876">
        <ele>2137.15</ele>
        <time>2013-03-02T13:27:19Z</time>
      </trkpt>
      <trkpt lat="45.85772" lon="6.44881">
        <ele>2137.63</ele>
        <time>2013-03-02T13:27:56Z</time>
      </trkpt>
      <trkpt lat="45.85763" lon="6.44888">
        <ele>2139.55</ele>
        <time>2013-03-02T13:28:16Z</time>
      </trkpt>
      <trkpt lat="45.85764" lon="6.44889">
        <ele>2142.92</ele>
        <time>2013-03-02T13:28:30Z</time>
      </trkpt>
      <trkpt lat="45.85769" lon="6.44899">
        <ele>2145.32</ele>
        <time>2013-03-02T13:28:51Z</time>
      </trkpt>
      <trkpt lat="45.85772" lon="6.44911">
        <ele>2148.68</ele>
        <time>2013-03-02T13:29:09Z</time>
      </trkpt>
      <trkpt lat="45.85774" lon="6.44927">
        <ele>2151.09</ele>
        <time>2013-03-02T13:29:25Z</time>
      </trkpt>
      <trkpt lat="45.85774" lon="6.44941">
        <ele>2152.05</ele>
        <time>2013-03-02T13:29:37Z</time>
      </trkpt>
      <trkpt lat="45.85775" lon="6.4495">
        <ele>2154.45</ele>
        <time>2013-03-02T13:29:50Z</time>
      </trkpt>
      <trkpt lat="45.85776" lon="6.44963">
        <ele>2156.86</ele>
        <time>2013-03-02T13:30:03Z</time>
      </trkpt>
      <trkpt lat="45.85772" lon="6.44975">
        <ele>2161.18</ele>
        <time>2013-03-02T13:30:22Z</time>
      </trkpt>
      <trkpt lat="45.8577" lon="6.44984">
        <ele>2164.55</ele>
        <time>2013-03-02T13:30:43Z</time>
      </trkpt>
      <trkpt lat="45.85778" lon="6.44995">
        <ele>2169.35</ele>
        <time>2013-03-02T13:31:19Z</time>
      </trkpt>
      <trkpt lat="45.85783" lon="6.45007">
        <ele>2173.2</ele>
        <time>2013-03-02T13:31:35Z</time>
      </trkpt>
      <trkpt lat="45.8579" lon="6.45016">
        <ele>2175.6</ele>
        <time>2013-03-02T13:31:48Z</time>
      </trkpt>
      <trkpt lat="45.85798" lon="6.45021">
        <ele>2177.04</ele>
        <time>2013-03-02T13:32:01Z</time>
      </trkpt>
      <trkpt lat="45.85806" lon="6.45025">
        <ele>2178.48</ele>
        <time>2013-03-02T13:32:13Z</time>
      </trkpt>
      <trkpt lat="45.85816" lon="6.4503">
        <ele>2182.33</ele>
        <time>2013-03-02T13:32:30Z</time>
      </trkpt>
      <trkpt lat="45.85825" lon="6.45035">
        <ele>2184.73</ele>
        <time>2013-03-02T13:32:44Z</time>
      </trkpt>
      <trkpt lat="45.85832" lon="6.45042">
        <ele>2186.18</ele>
        <time>2013-03-02T13:32:58Z</time>
      </trkpt>
      <trkpt lat="45.8584" lon="6.45046">
        <ele>2188.58</ele>
        <time>2013-03-02T13:33:16Z</time>
      </trkpt>
      <trkpt lat="45.85849" lon="6.45052">
        <ele>2190.5</ele>
        <time>2013-03-02T13:33:29Z</time>
      </trkpt>
      <trkpt lat="45.85857" lon="6.4506">
        <ele>2192.42</ele>
        <time>2013-03-02T13:33:42Z</time>
      </trkpt>
      <trkpt lat="45.85863" lon="6.45069">
        <ele>2193.87</ele>
        <time>2013-03-02T13:33:56Z</time>
      </trkpt>
      <trkpt lat="45.85871" lon="6.45078">
        <ele>2195.79</ele>
        <time>2013-03-02T13:34:10Z</time>
      </trkpt>
      <trkpt lat="45.85876" lon="6.45087">
        <ele>2197.71</ele>
        <time>2013-03-02T13:34:25Z</time>
      </trkpt>
      <trkpt lat="45.85882" lon="6.45095">
        <ele>2199.63</ele>
        <time>2013-03-02T13:34:39Z</time>
      </trkpt>
      <trkpt lat="45.85889" lon="6.45104">
        <ele>2202.04</ele>
        <time>2013-03-02T13:34:55Z</time>
      </trkpt>
      <trkpt lat="45.85897" lon="6.45109">
        <ele>2203.48</ele>
        <time>2013-03-02T13:35:08Z</time>
      </trkpt>
      <trkpt lat="45.85906" lon="6.45112">
        <ele>2205.88</ele>
        <time>2013-03-02T13:35:25Z</time>
      </trkpt>
      <trkpt lat="45.85915" lon="6.45113">
        <ele>2208.77</ele>
        <time>2013-03-02T13:35:41Z</time>
      </trkpt>
      <trkpt lat="45.85925" lon="6.45113">
        <ele>2209.73</ele>
        <time>2013-03-02T13:36:07Z</time>
      </trkpt>
      <trkpt lat="45.85925" lon="6.45122">
        <ele>2212.13</ele>
        <time>2013-03-02T13:36:24Z</time>
      </trkpt>
      <trkpt lat="45.85928" lon="6.45126">
        <ele>2216.46</ele>
        <time>2013-03-02T13:36:46Z</time>
      </trkpt>
      <trkpt lat="45.85938" lon="6.45127">
        <ele>2219.82</ele>
        <time>2013-03-02T13:37:02Z</time>
      </trkpt>
      <trkpt lat="45.85944" lon="6.45132">
        <ele>2222.22</ele>
        <time>2013-03-02T13:37:31Z</time>
      </trkpt>
      <trkpt lat="45.85939" lon="6.45142">
        <ele>2225.11</ele>
        <time>2013-03-02T13:37:44Z</time>
      </trkpt>
      <trkpt lat="45.85935" lon="6.45153">
        <ele>2227.99</ele>
        <time>2013-03-02T13:37:59Z</time>
      </trkpt>
      <trkpt lat="45.85931" lon="6.45152">
        <ele>2231.36</ele>
        <time>2013-03-02T13:38:31Z</time>
      </trkpt>
      <trkpt lat="45.85937" lon="6.45153">
        <ele>2232.8</ele>
        <time>2013-03-02T13:38:42Z</time>
      </trkpt>
      <trkpt lat="45.85937" lon="6.45161">
        <ele>2235.2</ele>
        <time>2013-03-02T13:39:03Z</time>
      </trkpt>
      <trkpt lat="45.85943" lon="6.4516">
        <ele>2237.13</ele>
        <time>2013-03-02T13:39:19Z</time>
      </trkpt>
      <trkpt lat="45.8595" lon="6.45163">
        <ele>2240.01</ele>
        <time>2013-03-02T13:39:39Z</time>
      </trkpt>
      <trkpt lat="45.85944" lon="6.45175">
        <ele>2241.93</ele>
        <time>2013-03-02T13:40:00Z</time>
      </trkpt>
      <trkpt lat="45.85948" lon="6.45168">
        <ele>2244.82</ele>
        <time>2013-03-02T13:40:25Z</time>
      </trkpt>
      <trkpt lat="45.8595" lon="6.4518">
        <ele>2248.18</ele>
        <time>2013-03-02T13:40:48Z</time>
      </trkpt>
      <trkpt lat="45.85948" lon="6.45192">
        <ele>2252.51</ele>
        <time>2013-03-02T13:41:09Z</time>
      </trkpt>
      <trkpt lat="45.85947" lon="6.45194">
        <ele>2254.43</ele>
        <time>2013-03-02T13:41:28Z</time>
      </trkpt>
      <trkpt lat="45.85953" lon="6.45195">
        <ele>2256.35</ele>
        <time>2013-03-02T13:41:40Z</time>
      </trkpt>
      <trkpt lat="45.85953" lon="6.45199">
        <ele>2252.99</ele>
        <time>2013-03-02T13:46:26Z</time>
      </trkpt>
      <trkpt lat="45.85958" lon="6.45201">
        <ele>2253.47</ele>
        <time>2013-03-02T13:54:25Z</time>
      </trkpt>
      <trkpt lat="45.85963" lon="6.45208">
        <ele>2248.66</ele>
        <time>2013-03-02T13:54:31Z</time>
      </trkpt>
      <trkpt lat="45.85969" lon="6.45208">
        <ele>2241.93</ele>
        <time>2013-03-02T13:54:37Z</time>
      </trkpt>
      <trkpt lat="45.85975" lon="6.45216">
        <ele>2237.61</ele>
        <time>2013-03-02T13:54:43Z</time>
      </trkpt>
      <trkpt lat="45.85981" lon="6.45218">
        <ele>2231.36</ele>
        <time>2013-03-02T13:54:56Z</time>
      </trkpt>
      <trkpt lat="45.85988" lon="6.45218">
        <ele>2226.55</ele>
        <time>2013-03-02T13:55:03Z</time>
      </trkpt>
      <trkpt lat="45.85995" lon="6.45225">
        <ele>2219.34</ele>
        <time>2013-03-02T13:55:11Z</time>
      </trkpt>
      <trkpt lat="45.86" lon="6.45238">
        <ele>2215.98</ele>
        <time>2013-03-02T13:55:15Z</time>
      </trkpt>
      <trkpt lat="45.86001" lon="6.45231">
        <ele>2211.17</ele>
        <time>2013-03-02T13:55:46Z</time>
      </trkpt>
      <trkpt lat="45.86009" lon="6.45236">
        <ele>2205.4</ele>
        <time>2013-03-02T13:55:51Z</time>
      </trkpt>
      <trkpt lat="45.86017" lon="6.45244">
        <ele>2200.59</ele>
        <time>2013-03-02T13:55:55Z</time>
      </trkpt>
      <trkpt lat="45.86024" lon="6.45243">
        <ele>2190.98</ele>
        <time>2013-03-02T13:56:02Z</time>
      </trkpt>
      <trkpt lat="45.86034" lon="6.45241">
        <ele>2186.18</ele>
        <time>2013-03-02T13:56:07Z</time>
      </trkpt>
      <trkpt lat="45.86041" lon="6.45231">
        <ele>2180.89</ele>
        <time>2013-03-02T13:56:12Z</time>
      </trkpt>
      <trkpt lat="45.86048" lon="6.45255">
        <ele>2179.93</ele>
        <time>2013-03-02T13:57:12Z</time>
      </trkpt>
      <trkpt lat="45.86058" lon="6.45245">
        <ele>2175.6</ele>
        <time>2013-03-02T13:57:15Z</time>
      </trkpt>
      <trkpt lat="45.8607" lon="6.45241">
        <ele>2169.83</ele>
        <time>2013-03-02T13:57:19Z</time>
      </trkpt>
      <trkpt lat="45.86072" lon="6.45241">
        <ele>2161.18</ele>
        <time>2013-03-02T13:57:24Z</time>
      </trkpt>
      <trkpt lat="45.86071" lon="6.45242">
        <ele>2155.41</ele>
        <time>2013-03-02T13:57:28Z</time>
      </trkpt>
      <trkpt lat="45.86078" lon="6.45235">
        <ele>2151.57</ele>
        <time>2013-03-02T13:57:31Z</time>
      </trkpt>
      <trkpt lat="45.86083" lon="6.4523">
        <ele>2147.24</ele>
        <time>2013-03-02T13:57:35Z</time>
      </trkpt>
      <trkpt lat="45.86084" lon="6.45228">
        <ele>2142.92</ele>
        <time>2013-03-02T13:57:38Z</time>
      </trkpt>
      <trkpt lat="45.86079" lon="6.4524">
        <ele>2140.99</ele>
        <time>2013-03-02T13:57:41Z</time>
      </trkpt>
      <trkpt lat="45.86078" lon="6.45258">
        <ele>2137.63</ele>
        <time>2013-03-02T13:57:44Z</time>
      </trkpt>
      <trkpt lat="45.86083" lon="6.45277">
        <ele>2136.67</ele>
        <time>2013-03-02T13:57:46Z</time>
      </trkpt>
      <trkpt lat="45.86089" lon="6.45295">
        <ele>2135.71</ele>
        <time>2013-03-02T13:57:48Z</time>
      </trkpt>
      <trkpt lat="45.86101" lon="6.45303">
        <ele>2130.9</ele>
        <time>2013-03-02T13:57:51Z</time>
      </trkpt>
      <trkpt lat="45.86113" lon="6.45316">
        <ele>2126.09</ele>
        <time>2013-03-02T13:57:54Z</time>
      </trkpt>
      <trkpt lat="45.8612" lon="6.45311">
        <ele>2122.25</ele>
        <time>2013-03-02T13:57:56Z</time>
      </trkpt>
      <trkpt lat="45.86124" lon="6.45299">
        <ele>2117.44</ele>
        <time>2013-03-02T13:57:59Z</time>
      </trkpt>
      <trkpt lat="45.86133" lon="6.453">
        <ele>2110.23</ele>
        <time>2013-03-02T13:58:04Z</time>
      </trkpt>
      <trkpt lat="45.86127" lon="6.45293">
        <ele>2111.19</ele>
        <time>2013-03-02T13:58:37Z</time>
      </trkpt>
      <trkpt lat="45.86136" lon="6.45293">
        <ele>2107.35</ele>
        <time>2013-03-02T13:58:40Z</time>
      </trkpt>
      <trkpt lat="45.86147" lon="6.45297">
        <ele>2102.54</ele>
        <time>2013-03-02T13:58:43Z</time>
      </trkpt>
      <trkpt lat="45.86158" lon="6.45299">
        <ele>2098.21</ele>
        <time>2013-03-02T13:58:46Z</time>
      </trkpt>
      <trkpt lat="45.86165" lon="6.45293">
        <ele>2093.41</ele>
        <time>2013-03-02T13:58:49Z</time>
      </trkpt>
      <trkpt lat="45.8617" lon="6.45288">
        <ele>2087.16</ele>
        <time>2013-03-02T13:58:53Z</time>
      </trkpt>
      <trkpt lat="45.86173" lon="6.45275">
        <ele>2083.79</ele>
        <time>2013-03-02T13:58:56Z</time>
      </trkpt>
      <trkpt lat="45.8618" lon="6.45273">
        <ele>2078.99</ele>
        <time>2013-03-02T13:59:00Z</time>
      </trkpt>
      <trkpt lat="45.86184" lon="6.45262">
        <ele>2075.62</ele>
        <time>2013-03-02T13:59:03Z</time>
      </trkpt>
      <trkpt lat="45.86194" lon="6.45263">
        <ele>2067.93</ele>
        <time>2013-03-02T13:59:07Z</time>
      </trkpt>
      <trkpt lat="45.86187" lon="6.4525">
        <ele>2066.97</ele>
        <time>2013-03-02T13:59:30Z</time>
      </trkpt>
      <trkpt lat="45.86192" lon="6.45235">
        <ele>2064.09</ele>
        <time>2013-03-02T13:59:33Z</time>
      </trkpt>
      <trkpt lat="45.86201" lon="6.45236">
        <ele>2057.84</ele>
        <time>2013-03-02T13:59:36Z</time>
      </trkpt>
      <trkpt lat="45.8621" lon="6.45232">
        <ele>2053.03</ele>
        <time>2013-03-02T13:59:39Z</time>
      </trkpt>
      <trkpt lat="45.86216" lon="6.45245">
        <ele>2046.78</ele>
        <time>2013-03-02T13:59:42Z</time>
      </trkpt>
      <trkpt lat="45.86222" lon="6.45242">
        <ele>2043.9</ele>
        <time>2013-03-02T13:59:44Z</time>
      </trkpt>
      <trkpt lat="45.86229" lon="6.45253">
        <ele>2036.69</ele>
        <time>2013-03-02T13:59:48Z</time>
      </trkpt>
      <trkpt lat="45.86238" lon="6.45261">
        <ele>2029</ele>
        <time>2013-03-02T13:59:52Z</time>
      </trkpt>
      <trkpt lat="45.86241" lon="6.4527">
        <ele>2025.15</ele>
        <time>2013-03-02T13:59:54Z</time>
      </trkpt>
      <trkpt lat="45.8625" lon="6.45274">
        <ele>2020.83</ele>
        <time>2013-03-02T13:59:57Z</time>
      </trkpt>
      <trkpt lat="45.86261" lon="6.4529">
        <ele>2017.94</ele>
        <time>2013-03-02T14:00:39Z</time>
      </trkpt>
      <trkpt lat="45.86264" lon="6.45306">
        <ele>2009.29</ele>
        <time>2013-03-02T14:00:42Z</time>
      </trkpt>
      <trkpt lat="45.86275" lon="6.45312">
        <ele>2003.04</ele>
        <time>2013-03-02T14:00:45Z</time>
      </trkpt>
      <trkpt lat="45.8628" lon="6.45322">
        <ele>1997.76</ele>
        <time>2013-03-02T14:00:48Z</time>
      </trkpt>
      <trkpt lat="45.86277" lon="6.45339">
        <ele>1991.51</ele>
        <time>2013-03-02T14:00:51Z</time>
      </trkpt>
      <trkpt lat="45.86281" lon="6.45349">
        <ele>1985.74</ele>
        <time>2013-03-02T14:00:54Z</time>
      </trkpt>
      <trkpt lat="45.86288" lon="6.45356">
        <ele>1980.45</ele>
        <time>2013-03-02T14:00:57Z</time>
      </trkpt>
      <trkpt lat="45.86292" lon="6.45368">
        <ele>1973.72</ele>
        <time>2013-03-02T14:01:00Z</time>
      </trkpt>
      <trkpt lat="45.86295" lon="6.45382">
        <ele>1969.88</ele>
        <time>2013-03-02T14:01:02Z</time>
      </trkpt>
      <trkpt lat="45.86298" lon="6.45393">
        <ele>1966.03</ele>
        <time>2013-03-02T14:01:04Z</time>
      </trkpt>
      <trkpt lat="45.86303" lon="6.454">
        <ele>1961.71</ele>
        <time>2013-03-02T14:01:08Z</time>
      </trkpt>
      <trkpt lat="45.86295" lon="6.45392">
        <ele>1958.34</ele>
        <time>2013-03-02T14:01:44Z</time>
      </trkpt>
      <trkpt lat="45.86301" lon="6.4539">
        <ele>1954.5</ele>
        <time>2013-03-02T14:01:46Z</time>
      </trkpt>
      <trkpt lat="45.86307" lon="6.45388">
        <ele>1947.77</ele>
        <time>2013-03-02T14:01:49Z</time>
      </trkpt>
      <trkpt lat="45.86311" lon="6.45396">
        <ele>1943.44</ele>
        <time>2013-03-02T14:01:51Z</time>
      </trkpt>
      <trkpt lat="45.86317" lon="6.45398">
        <ele>1934.31</ele>
        <time>2013-03-02T14:01:55Z</time>
      </trkpt>
      <trkpt lat="45.86321" lon="6.45412">
        <ele>1927.58</ele>
        <time>2013-03-02T14:01:58Z</time>
      </trkpt>
      <trkpt lat="45.8633" lon="6.45402">
        <ele>1921.81</ele>
        <time>2013-03-02T14:02:01Z</time>
      </trkpt>
      <trkpt lat="45.86338" lon="6.45408">
        <ele>1917.49</ele>
        <time>2013-03-02T14:02:03Z</time>
      </trkpt>
      <trkpt lat="45.86347" lon="6.45419">
        <ele>1910.76</ele>
        <time>2013-03-02T14:02:07Z</time>
      </trkpt>
      <trkpt lat="45.86362" lon="6.45418">
        <ele>1903.55</ele>
        <time>2013-03-02T14:02:10Z</time>
      </trkpt>
      <trkpt lat="45.86366" lon="6.45432">
        <ele>1901.14</ele>
        <time>2013-03-02T14:02:13Z</time>
      </trkpt>
      <trkpt lat="45.86369" lon="6.45446">
        <ele>1898.26</ele>
        <time>2013-03-02T14:02:16Z</time>
      </trkpt>
      <trkpt lat="45.86371" lon="6.45477">
        <ele>1898.26</ele>
        <time>2013-03-02T14:02:57Z</time>
      </trkpt>
      <trkpt lat="45.86371" lon="6.45496">
        <ele>1895.38</ele>
        <time>2013-03-02T14:03:00Z</time>
      </trkpt>
      <trkpt lat="45.86376" lon="6.45521">
        <ele>1893.93</ele>
        <time>2013-03-02T14:03:29Z</time>
      </trkpt>
      <trkpt lat="45.86374" lon="6.45535">
        <ele>1891.05</ele>
        <time>2013-03-02T14:04:01Z</time>
      </trkpt>
      <trkpt lat="45.86382" lon="6.45542">
        <ele>1885.76</ele>
        <time>2013-03-02T14:04:08Z</time>
      </trkpt>
      <trkpt lat="45.86389" lon="6.45548">
        <ele>1879.03</ele>
        <time>2013-03-02T14:04:12Z</time>
      </trkpt>
      <trkpt lat="45.86401" lon="6.45539">
        <ele>1875.19</ele>
        <time>2013-03-02T14:04:15Z</time>
      </trkpt>
      <trkpt lat="45.86411" lon="6.4554">
        <ele>1872.79</ele>
        <time>2013-03-02T14:04:17Z</time>
      </trkpt>
      <trkpt lat="45.86413" lon="6.45554">
        <ele>1867.5</ele>
        <time>2013-03-02T14:04:20Z</time>
      </trkpt>
      <trkpt lat="45.86419" lon="6.45559">
        <ele>1861.73</ele>
        <time>2013-03-02T14:04:23Z</time>
      </trkpt>
      <trkpt lat="45.86421" lon="6.45573">
        <ele>1857.4</ele>
        <time>2013-03-02T14:04:26Z</time>
      </trkpt>
      <trkpt lat="45.86427" lon="6.45582">
        <ele>1851.16</ele>
        <time>2013-03-02T14:04:29Z</time>
      </trkpt>
      <trkpt lat="45.86436" lon="6.45577">
        <ele>1849.23</ele>
        <time>2013-03-02T14:04:31Z</time>
      </trkpt>
      <trkpt lat="45.86448" lon="6.4558">
        <ele>1842.5</ele>
        <time>2013-03-02T14:04:34Z</time>
      </trkpt>
      <trkpt lat="45.8645" lon="6.45593">
        <ele>1840.58</ele>
        <time>2013-03-02T14:04:36Z</time>
      </trkpt>
      <trkpt lat="45.86448" lon="6.45604">
        <ele>1838.66</ele>
        <time>2013-03-02T14:04:38Z</time>
      </trkpt>
      <trkpt lat="45.86446" lon="6.45618">
        <ele>1836.26</ele>
        <time>2013-03-02T14:04:41Z</time>
      </trkpt>
      <trkpt lat="45.86448" lon="6.45634">
        <ele>1832.41</ele>
        <time>2013-03-02T14:04:44Z</time>
      </trkpt>
      <trkpt lat="45.86449" lon="6.45649">
        <ele>1828.56</ele>
        <time>2013-03-02T14:04:47Z</time>
      </trkpt>
      <trkpt lat="45.86449" lon="6.45667">
        <ele>1825.2</ele>
        <time>2013-03-02T14:05:25Z</time>
      </trkpt>
      <trkpt lat="45.86459" lon="6.45665">
        <ele>1818.47</ele>
        <time>2013-03-02T14:05:28Z</time>
      </trkpt>
      <trkpt lat="45.8647" lon="6.45668">
        <ele>1811.74</ele>
        <time>2013-03-02T14:05:31Z</time>
      </trkpt>
      <trkpt lat="45.86479" lon="6.45674">
        <ele>1805.01</ele>
        <time>2013-03-02T14:05:34Z</time>
      </trkpt>
      <trkpt lat="45.86489" lon="6.45679">
        <ele>1798.28</ele>
        <time>2013-03-02T14:05:37Z</time>
      </trkpt>
      <trkpt lat="45.86501" lon="6.45681">
        <ele>1791.07</ele>
        <time>2013-03-02T14:05:40Z</time>
      </trkpt>
      <trkpt lat="45.86514" lon="6.45684">
        <ele>1782.9</ele>
        <time>2013-03-02T14:05:43Z</time>
      </trkpt>
      <trkpt lat="45.86525" lon="6.45686">
        <ele>1776.17</ele>
        <time>2013-03-02T14:05:46Z</time>
      </trkpt>
      <trkpt lat="45.86529" lon="6.45691">
        <ele>1773.29</ele>
        <time>2013-03-02T14:06:21Z</time>
      </trkpt>
      <trkpt lat="45.86532" lon="6.45702">
        <ele>1768.48</ele>
        <time>2013-03-02T14:06:25Z</time>
      </trkpt>
      <trkpt lat="45.86542" lon="6.45706">
        <ele>1762.71</ele>
        <time>2013-03-02T14:06:28Z</time>
      </trkpt>
      <trkpt lat="45.86552" lon="6.45709">
        <ele>1755.99</ele>
        <time>2013-03-02T14:06:31Z</time>
      </trkpt>
      <trkpt lat="45.86563" lon="6.45709">
        <ele>1748.78</ele>
        <time>2013-03-02T14:06:34Z</time>
      </trkpt>
      <trkpt lat="45.86571" lon="6.45712">
        <ele>1743.49</ele>
        <time>2013-03-02T14:06:37Z</time>
      </trkpt>
      <trkpt lat="45.8658" lon="6.45723">
        <ele>1738.2</ele>
        <time>2013-03-02T14:06:40Z</time>
      </trkpt>
      <trkpt lat="45.86588" lon="6.4571">
        <ele>1734.84</ele>
        <time>2013-03-02T14:06:47Z</time>
      </trkpt>
      <trkpt lat="45.86594" lon="6.45722">
        <ele>1730.03</ele>
        <time>2013-03-02T14:06:50Z</time>
      </trkpt>
      <trkpt lat="45.86603" lon="6.45721">
        <ele>1725.22</ele>
        <time>2013-03-02T14:06:52Z</time>
      </trkpt>
      <trkpt lat="45.86613" lon="6.45728">
        <ele>1720.42</ele>
        <time>2013-03-02T14:06:55Z</time>
      </trkpt>
      <trkpt lat="45.86624" lon="6.45724">
        <ele>1717.05</ele>
        <time>2013-03-02T14:06:58Z</time>
      </trkpt>
      <trkpt lat="45.86631" lon="6.45731">
        <ele>1713.21</ele>
        <time>2013-03-02T14:07:01Z</time>
      </trkpt>
      <trkpt lat="45.86631" lon="6.45745">
        <ele>1711.76</ele>
        <time>2013-03-02T14:07:08Z</time>
      </trkpt>
      <trkpt lat="45.8663" lon="6.45759">
        <ele>1708.4</ele>
        <time>2013-03-02T14:07:11Z</time>
      </trkpt>
      <trkpt lat="45.86632" lon="6.45772">
        <ele>1706</ele>
        <time>2013-03-02T14:07:14Z</time>
      </trkpt>
      <trkpt lat="45.86635" lon="6.45791">
        <ele>1702.63</ele>
        <time>2013-03-02T14:07:18Z</time>
      </trkpt>
      <trkpt lat="45.86629" lon="6.45805">
        <ele>1699.75</ele>
        <time>2013-03-02T14:07:22Z</time>
      </trkpt>
      <trkpt lat="45.86614" lon="6.45804">
        <ele>1698.31</ele>
        <time>2013-03-02T14:07:36Z</time>
      </trkpt>
      <trkpt lat="45.86606" lon="6.4581">
        <ele>1697.83</ele>
        <time>2013-03-02T14:07:48Z</time>
      </trkpt>
      <trkpt lat="45.86604" lon="6.45795">
        <ele>1695.9</ele>
        <time>2013-03-02T14:08:08Z</time>
      </trkpt>
      <trkpt lat="45.86607" lon="6.45778">
        <ele>1692.06</ele>
        <time>2013-03-02T14:08:12Z</time>
      </trkpt>
      <trkpt lat="45.86608" lon="6.45765">
        <ele>1689.17</ele>
        <time>2013-03-02T14:08:35Z</time>
      </trkpt>
      <trkpt lat="45.86612" lon="6.45753">
        <ele>1685.33</ele>
        <time>2013-03-02T14:08:41Z</time>
      </trkpt>
      <trkpt lat="45.86613" lon="6.45746">
        <ele>1680.04</ele>
        <time>2013-03-02T14:08:49Z</time>
      </trkpt>
      <trkpt lat="45.86609" lon="6.45754">
        <ele>1675.72</ele>
        <time>2013-03-02T14:08:58Z</time>
      </trkpt>
      <trkpt lat="45.86604" lon="6.45765">
        <ele>1670.43</ele>
        <time>2013-03-02T14:09:04Z</time>
      </trkpt>
      <trkpt lat="45.8661" lon="6.45773">
        <ele>1661.78</ele>
        <time>2013-03-02T14:09:08Z</time>
      </trkpt>
      <trkpt lat="45.86613" lon="6.45786">
        <ele>1659.37</ele>
        <time>2013-03-02T14:09:11Z</time>
      </trkpt>
      <trkpt lat="45.86619" lon="6.45794">
        <ele>1655.53</ele>
        <time>2013-03-02T14:09:13Z</time>
      </trkpt>
      <trkpt lat="45.86629" lon="6.45798">
        <ele>1647.84</ele>
        <time>2013-03-02T14:09:17Z</time>
      </trkpt>
      <trkpt lat="45.86638" lon="6.458">
        <ele>1640.63</ele>
        <time>2013-03-02T14:09:20Z</time>
      </trkpt>
      <trkpt lat="45.86648" lon="6.45791">
        <ele>1634.86</ele>
        <time>2013-03-02T14:09:23Z</time>
      </trkpt>
      <trkpt lat="45.86659" lon="6.45789">
        <ele>1627.65</ele>
        <time>2013-03-02T14:09:26Z</time>
      </trkpt>
      <trkpt lat="45.86736" lon="6.45882">
        <ele>1623.8</ele>
        <time>2013-03-02T14:10:22Z</time>
      </trkpt>
      <trkpt lat="45.86741" lon="6.45893">
        <ele>1621.4</ele>
        <time>2013-03-02T14:10:25Z</time>
      </trkpt>
      <trkpt lat="45.86748" lon="6.45897">
        <ele>1615.63</ele>
        <time>2013-03-02T14:10:28Z</time>
      </trkpt>
      <trkpt lat="45.86756" lon="6.45902">
        <ele>1610.35</ele>
        <time>2013-03-02T14:10:31Z</time>
      </trkpt>
      <trkpt lat="45.8676" lon="6.45916">
        <ele>1607.94</ele>
        <time>2013-03-02T14:10:34Z</time>
      </trkpt>
      <trkpt lat="45.86766" lon="6.45921">
        <ele>1600.25</ele>
        <time>2013-03-02T14:10:37Z</time>
      </trkpt>
      <trkpt lat="45.86766" lon="6.45933">
        <ele>1596.89</ele>
        <time>2013-03-02T14:10:39Z</time>
      </trkpt>
      <trkpt lat="45.86769" lon="6.45949">
        <ele>1594.96</ele>
        <time>2013-03-02T14:10:41Z</time>
      </trkpt>
      <trkpt lat="45.86774" lon="6.45967">
        <ele>1592.08</ele>
        <time>2013-03-02T14:10:43Z</time>
      </trkpt>
      <trkpt lat="45.86777" lon="6.45984">
        <ele>1590.16</ele>
        <time>2013-03-02T14:10:45Z</time>
      </trkpt>
      <trkpt lat="45.86783" lon="6.45998">
        <ele>1588.24</ele>
        <time>2013-03-02T14:10:46Z</time>
      </trkpt>
      <trkpt lat="45.86791" lon="6.4602">
        <ele>1584.87</ele>
        <time>2013-03-02T14:10:48Z</time>
      </trkpt>
      <trkpt lat="45.86795" lon="6.46033">
        <ele>1584.39</ele>
        <time>2013-03-02T14:10:50Z</time>
      </trkpt>
      <trkpt lat="45.86799" lon="6.46049">
        <ele>1582.47</ele>
        <time>2013-03-02T14:10:52Z</time>
      </trkpt>
      <trkpt lat="45.86802" lon="6.46062">
        <ele>1581.03</ele>
        <time>2013-03-02T14:10:54Z</time>
      </trkpt>
      <trkpt lat="45.86803" lon="6.46077">
        <ele>1578.14</ele>
        <time>2013-03-02T14:10:56Z</time>
      </trkpt>
      <trkpt lat="45.8681" lon="6.4609">
        <ele>1574.3</ele>
        <time>2013-03-02T14:10:58Z</time>
      </trkpt>
      <trkpt lat="45.86826" lon="6.46096">
        <ele>1570.93</ele>
        <time>2013-03-02T14:11:00Z</time>
      </trkpt>
      <trkpt lat="45.86834" lon="6.46104">
        <ele>1568.05</ele>
        <time>2013-03-02T14:11:01Z</time>
      </trkpt>
      <trkpt lat="45.86842" lon="6.46114">
        <ele>1565.16</ele>
        <time>2013-03-02T14:11:02Z</time>
      </trkpt>
      <trkpt lat="45.86855" lon="6.46124">
        <ele>1562.28</ele>
        <time>2013-03-02T14:11:04Z</time>
      </trkpt>
      <trkpt lat="45.86866" lon="6.4614">
        <ele>1556.51</ele>
        <time>2013-03-02T14:11:06Z</time>
      </trkpt>
      <trkpt lat="45.86881" lon="6.46158">
        <ele>1552.67</ele>
        <time>2013-03-02T14:11:08Z</time>
      </trkpt>
      <trkpt lat="45.8689" lon="6.46167">
        <ele>1551.22</ele>
        <time>2013-03-02T14:11:09Z</time>
      </trkpt>
      <trkpt lat="45.86897" lon="6.46177">
        <ele>1549.78</ele>
        <time>2013-03-02T14:11:10Z</time>
      </trkpt>
      <trkpt lat="45.8691" lon="6.46191">
        <ele>1549.78</ele>
        <time>2013-03-02T14:11:12Z</time>
      </trkpt>
      <trkpt lat="45.86916" lon="6.46204">
        <ele>1549.3</ele>
        <time>2013-03-02T14:11:14Z</time>
      </trkpt>
      <trkpt lat="45.86929" lon="6.46229">
        <ele>1549.3</ele>
        <time>2013-03-02T14:11:30Z</time>
      </trkpt>
      <trkpt lat="45.86942" lon="6.46232">
        <ele>1545.94</ele>
        <time>2013-03-02T14:11:33Z</time>
      </trkpt>
      <trkpt lat="45.86953" lon="6.46239">
        <ele>1542.09</ele>
        <time>2013-03-02T14:11:35Z</time>
      </trkpt>
      <trkpt lat="45.86965" lon="6.46253">
        <ele>1537.29</ele>
        <time>2013-03-02T14:11:37Z</time>
      </trkpt>
      <trkpt lat="45.86981" lon="6.46264">
        <ele>1533.92</ele>
        <time>2013-03-02T14:11:39Z</time>
      </trkpt>
      <trkpt lat="45.86988" lon="6.46271">
        <ele>1532</ele>
        <time>2013-03-02T14:11:40Z</time>
      </trkpt>
      <trkpt lat="45.86995" lon="6.4628">
        <ele>1531.04</ele>
        <time>2013-03-02T14:11:41Z</time>
      </trkpt>
      <trkpt lat="45.8701" lon="6.46292">
        <ele>1527.67</ele>
        <time>2013-03-02T14:11:43Z</time>
      </trkpt>
      <trkpt lat="45.87026" lon="6.46303">
        <ele>1524.31</ele>
        <time>2013-03-02T14:11:45Z</time>
      </trkpt>
      <trkpt lat="45.87038" lon="6.46318">
        <ele>1520.94</ele>
        <time>2013-03-02T14:11:47Z</time>
      </trkpt>
      <trkpt lat="45.87054" lon="6.46327">
        <ele>1517.58</ele>
        <time>2013-03-02T14:11:49Z</time>
      </trkpt>
      <trkpt lat="45.87062" lon="6.46333">
        <ele>1515.66</ele>
        <time>2013-03-02T14:11:50Z</time>
      </trkpt>
      <trkpt lat="45.87077" lon="6.46344">
        <ele>1513.25</ele>
        <time>2013-03-02T14:11:52Z</time>
      </trkpt>
      <trkpt lat="45.87092" lon="6.46357">
        <ele>1511.33</ele>
        <time>2013-03-02T14:11:54Z</time>
      </trkpt>
      <trkpt lat="45.87107" lon="6.46369">
        <ele>1509.89</ele>
        <time>2013-03-02T14:11:56Z</time>
      </trkpt>
      <trkpt lat="45.87122" lon="6.46381">
        <ele>1507.97</ele>
        <time>2013-03-02T14:11:58Z</time>
      </trkpt>
      <trkpt lat="45.87136" lon="6.46394">
        <ele>1506.52</ele>
        <time>2013-03-02T14:12:00Z</time>
      </trkpt>
      <trkpt lat="45.8715" lon="6.46407">
        <ele>1505.08</ele>
        <time>2013-03-02T14:12:02Z</time>
      </trkpt>
      <trkpt lat="45.8716" lon="6.46414">
        <ele>1505.08</ele>
        <time>2013-03-02T14:12:04Z</time>
      </trkpt>
      <trkpt lat="45.87169" lon="6.46419">
        <ele>1505.08</ele>
        <time>2013-03-02T14:12:06Z</time>
      </trkpt>
      <trkpt lat="45.87176" lon="6.46426">
        <ele>1504.6</ele>
        <time>2013-03-02T14:12:08Z</time>
      </trkpt>
      <trkpt lat="45.87184" lon="6.46436">
        <ele>1505.08</ele>
        <time>2013-03-02T14:12:12Z</time>
      </trkpt>
      <trkpt lat="45.87197" lon="6.46456">
        <ele>1485.76171875</ele>
      </trkpt>
    </trkseg>
  </trk>
</gpx>